sensor_id;sensor_type;location;lat;lon;timestamp;P1;durP1;ratioP1;P2;durP2;ratioP2
72920;SDS011;61064;51.654;5.476;2023-04-06T00:01:24;17.02;;;6.40;;
72920;SDS011;61064;51.654;5.476;2023-04-06T00:03:49;13.53;;;5.90;;
72920;SDS011;61064;51.654;5.476;2023-04-06T00:06:14;15.30;;;6.60;;
72920;SDS011;61064;51.654;5.476;2023-04-06T00:08:40;15.07;;;6.13;;
72920;SDS011;61064;51.654;5.476;2023-04-06T00:11:06;14.20;;;6.30;;
72920;SDS011;61064;51.654;5.476;2023-04-06T00:13:31;15.40;;;6.70;;
72920;SDS011;61064;51.654;5.476;2023-04-06T00:15:56;17.07;;;6.60;;
72920;SDS011;61064;51.654;5.476;2023-04-06T00:18:22;15.03;;;6.67;;
72920;SDS011;61064;51.654;5.476;2023-04-06T00:20:47;17.77;;;7.13;;
72920;SDS011;61064;51.654;5.476;2023-04-06T00:23:13;13.73;;;6.17;;
72920;SDS011;61064;51.654;5.476;2023-04-06T00:25:38;16.47;;;6.37;;
72920;SDS011;61064;51.654;5.476;2023-04-06T00:28:04;15.97;;;7.10;;
72920;SDS011;61064;51.654;5.476;2023-04-06T00:30:29;15.13;;;6.50;;
72920;SDS011;61064;51.654;5.476;2023-04-06T00:32:55;15.83;;;6.93;;
72920;SDS011;61064;51.654;5.476;2023-04-06T00:35:20;14.03;;;6.53;;
72920;SDS011;61064;51.654;5.476;2023-04-06T00:37:46;14.03;;;6.00;;
72920;SDS011;61064;51.654;5.476;2023-04-06T00:40:13;13.65;;;5.95;;
72920;SDS011;61064;51.654;5.476;2023-04-06T00:42:38;18.58;;;6.78;;
72920;SDS011;61064;51.654;5.476;2023-04-06T00:45:04;15.03;;;6.20;;
72920;SDS011;61064;51.654;5.476;2023-04-06T00:47:30;15.40;;;6.83;;
72920;SDS011;61064;51.654;5.476;2023-04-06T00:49:56;14.60;;;6.00;;
72920;SDS011;61064;51.654;5.476;2023-04-06T00:52:21;16.35;;;6.10;;
72920;SDS011;61064;51.654;5.476;2023-04-06T00:54:47;14.33;;;6.10;;
72920;SDS011;61064;51.654;5.476;2023-04-06T00:57:12;14.30;;;6.40;;
72920;SDS011;61064;51.654;5.476;2023-04-06T00:59:38;17.95;;;6.32;;
72920;SDS011;61064;51.654;5.476;2023-04-06T01:02:04;16.42;;;6.22;;
72920;SDS011;61064;51.654;5.476;2023-04-06T01:04:29;15.73;;;6.33;;
72920;SDS011;61064;51.654;5.476;2023-04-06T01:06:56;14.23;;;6.18;;
72920;SDS011;61064;51.654;5.476;2023-04-06T01:09:21;15.10;;;6.00;;
72920;SDS011;61064;51.654;5.476;2023-04-06T01:11:47;13.10;;;5.77;;
72920;SDS011;61064;51.654;5.476;2023-04-06T01:14:12;14.20;;;6.23;;
72920;SDS011;61064;51.654;5.476;2023-04-06T01:16:37;14.57;;;6.15;;
72920;SDS011;61064;51.654;5.476;2023-04-06T01:19:07;15.17;;;6.00;;
72920;SDS011;61064;51.654;5.476;2023-04-06T01:21:36;14.80;;;6.18;;
72920;SDS011;61064;51.654;5.476;2023-04-06T01:24:02;14.40;;;5.78;;
72920;SDS011;61064;51.654;5.476;2023-04-06T01:26:28;14.47;;;5.77;;
72920;SDS011;61064;51.654;5.476;2023-04-06T01:28:54;13.15;;;6.25;;
72920;SDS011;61064;51.654;5.476;2023-04-06T01:31:20;15.85;;;6.70;;
72920;SDS011;61064;51.654;5.476;2023-04-06T01:33:46;15.73;;;6.20;;
72920;SDS011;61064;51.654;5.476;2023-04-06T01:36:11;18.10;;;6.45;;
72920;SDS011;61064;51.654;5.476;2023-04-06T01:38:37;14.90;;;6.40;;
72920;SDS011;61064;51.654;5.476;2023-04-06T01:41:02;14.07;;;5.93;;
72920;SDS011;61064;51.654;5.476;2023-04-06T01:43:28;14.17;;;6.30;;
72920;SDS011;61064;51.654;5.476;2023-04-06T01:45:53;14.77;;;6.22;;
72920;SDS011;61064;51.654;5.476;2023-04-06T01:48:19;15.63;;;6.70;;
72920;SDS011;61064;51.654;5.476;2023-04-06T01:50:44;18.23;;;6.80;;
72920;SDS011;61064;51.654;5.476;2023-04-06T01:53:09;16.23;;;6.40;;
72920;SDS011;61064;51.654;5.476;2023-04-06T01:55:35;15.80;;;6.32;;
72920;SDS011;61064;51.654;5.476;2023-04-06T01:58:00;19.70;;;7.27;;
72920;SDS011;61064;51.654;5.476;2023-04-06T02:00:25;16.23;;;6.50;;
72920;SDS011;61064;51.654;5.476;2023-04-06T02:02:53;16.85;;;7.03;;
72920;SDS011;61064;51.654;5.476;2023-04-06T02:05:19;16.90;;;6.53;;
72920;SDS011;61064;51.654;5.476;2023-04-06T02:07:45;16.45;;;7.03;;
72920;SDS011;61064;51.654;5.476;2023-04-06T02:10:11;17.77;;;6.20;;
72920;SDS011;61064;51.654;5.476;2023-04-06T02:12:38;18.63;;;7.32;;
72920;SDS011;61064;51.654;5.476;2023-04-06T02:15:03;15.40;;;6.20;;
72920;SDS011;61064;51.654;5.476;2023-04-06T02:17:29;18.43;;;7.20;;
72920;SDS011;61064;51.654;5.476;2023-04-06T02:19:55;17.20;;;6.88;;
72920;SDS011;61064;51.654;5.476;2023-04-06T02:22:20;17.60;;;7.57;;
72920;SDS011;61064;51.654;5.476;2023-04-06T02:24:45;17.60;;;7.20;;
72920;SDS011;61064;51.654;5.476;2023-04-06T02:27:11;16.90;;;6.97;;
72920;SDS011;61064;51.654;5.476;2023-04-06T02:29:37;16.17;;;7.23;;
72920;SDS011;61064;51.654;5.476;2023-04-06T02:32:02;16.83;;;7.07;;
72920;SDS011;61064;51.654;5.476;2023-04-06T02:34:28;18.95;;;7.15;;
72920;SDS011;61064;51.654;5.476;2023-04-06T02:36:54;16.35;;;7.00;;
72920;SDS011;61064;51.654;5.476;2023-04-06T02:39:20;19.33;;;8.03;;
72920;SDS011;61064;51.654;5.476;2023-04-06T02:41:45;18.40;;;7.83;;
72920;SDS011;61064;51.654;5.476;2023-04-06T02:44:11;15.90;;;7.37;;
72920;SDS011;61064;51.654;5.476;2023-04-06T02:46:36;19.88;;;7.88;;
72920;SDS011;61064;51.654;5.476;2023-04-06T02:49:02;19.57;;;8.00;;
72920;SDS011;61064;51.654;5.476;2023-04-06T02:51:27;18.93;;;7.87;;
72920;SDS011;61064;51.654;5.476;2023-04-06T02:53:53;17.77;;;7.53;;
72920;SDS011;61064;51.654;5.476;2023-04-06T02:56:18;17.57;;;7.90;;
72920;SDS011;61064;51.654;5.476;2023-04-06T02:58:45;18.90;;;7.77;;
72920;SDS011;61064;51.654;5.476;2023-04-06T03:01:11;17.83;;;8.00;;
72920;SDS011;61064;51.654;5.476;2023-04-06T03:03:36;21.00;;;8.33;;
72920;SDS011;61064;51.654;5.476;2023-04-06T03:06:02;19.53;;;8.00;;
72920;SDS011;61064;51.654;5.476;2023-04-06T03:08:28;17.95;;;8.15;;
72920;SDS011;61064;51.654;5.476;2023-04-06T03:10:53;21.57;;;7.97;;
72920;SDS011;61064;51.654;5.476;2023-04-06T03:13:18;19.17;;;7.90;;
72920;SDS011;61064;51.654;5.476;2023-04-06T03:15:44;17.73;;;8.40;;
72920;SDS011;61064;51.654;5.476;2023-04-06T03:18:09;18.60;;;8.13;;
72920;SDS011;61064;51.654;5.476;2023-04-06T03:20:34;17.75;;;8.40;;
72920;SDS011;61064;51.654;5.476;2023-04-06T03:23:00;19.10;;;8.03;;
72920;SDS011;61064;51.654;5.476;2023-04-06T03:25:25;18.57;;;8.87;;
72920;SDS011;61064;51.654;5.476;2023-04-06T03:27:51;17.90;;;8.27;;
72920;SDS011;61064;51.654;5.476;2023-04-06T03:30:16;18.23;;;8.50;;
72920;SDS011;61064;51.654;5.476;2023-04-06T03:32:43;19.92;;;8.73;;
72920;SDS011;61064;51.654;5.476;2023-04-06T03:35:08;21.00;;;9.00;;
72920;SDS011;61064;51.654;5.476;2023-04-06T03:37:34;19.60;;;8.97;;
72920;SDS011;61064;51.654;5.476;2023-04-06T03:39:59;20.20;;;8.87;;
72920;SDS011;61064;51.654;5.476;2023-04-06T03:42:25;18.63;;;8.55;;
72920;SDS011;61064;51.654;5.476;2023-04-06T03:44:51;17.65;;;8.32;;
72920;SDS011;61064;51.654;5.476;2023-04-06T03:47:17;20.03;;;9.63;;
72920;SDS011;61064;51.654;5.476;2023-04-06T03:49:42;19.30;;;8.67;;
72920;SDS011;61064;51.654;5.476;2023-04-06T03:52:08;21.07;;;8.50;;
72920;SDS011;61064;51.654;5.476;2023-04-06T03:54:33;18.95;;;8.77;;
72920;SDS011;61064;51.654;5.476;2023-04-06T03:56:58;20.80;;;9.17;;
72920;SDS011;61064;51.654;5.476;2023-04-06T03:59:25;19.05;;;9.38;;
72920;SDS011;61064;51.654;5.476;2023-04-06T04:01:50;21.00;;;8.93;;
72920;SDS011;61064;51.654;5.476;2023-04-06T04:04:16;19.93;;;8.93;;
72920;SDS011;61064;51.654;5.476;2023-04-06T04:06:41;20.50;;;9.47;;
72920;SDS011;61064;51.654;5.476;2023-04-06T04:09:06;21.10;;;9.03;;
72920;SDS011;61064;51.654;5.476;2023-04-06T04:11:31;22.23;;;8.97;;
72920;SDS011;61064;51.654;5.476;2023-04-06T04:13:57;19.50;;;9.93;;
72920;SDS011;61064;51.654;5.476;2023-04-06T04:16:25;22.40;;;9.35;;
72920;SDS011;61064;51.654;5.476;2023-04-06T04:18:50;21.10;;;9.87;;
72920;SDS011;61064;51.654;5.476;2023-04-06T04:21:16;20.57;;;9.80;;
72920;SDS011;61064;51.654;5.476;2023-04-06T04:23:41;19.75;;;9.30;;
72920;SDS011;61064;51.654;5.476;2023-04-06T04:26:06;19.20;;;9.67;;
72920;SDS011;61064;51.654;5.476;2023-04-06T04:28:32;20.27;;;9.30;;
72920;SDS011;61064;51.654;5.476;2023-04-06T04:30:57;18.80;;;9.77;;
72920;SDS011;61064;51.654;5.476;2023-04-06T04:33:23;23.73;;;9.77;;
72920;SDS011;61064;51.654;5.476;2023-04-06T04:35:48;20.17;;;9.68;;
72920;SDS011;61064;51.654;5.476;2023-04-06T04:38:13;22.70;;;9.73;;
72920;SDS011;61064;51.654;5.476;2023-04-06T04:40:39;20.27;;;8.90;;
72920;SDS011;61064;51.654;5.476;2023-04-06T04:43:04;20.77;;;9.80;;
72920;SDS011;61064;51.654;5.476;2023-04-06T04:45:30;18.97;;;9.70;;
72920;SDS011;61064;51.654;5.476;2023-04-06T04:47:55;20.85;;;9.82;;
72920;SDS011;61064;51.654;5.476;2023-04-06T04:50:20;19.47;;;9.40;;
72920;SDS011;61064;51.654;5.476;2023-04-06T04:52:46;19.90;;;9.20;;
72920;SDS011;61064;51.654;5.476;2023-04-06T04:55:11;19.50;;;9.40;;
72920;SDS011;61064;51.654;5.476;2023-04-06T04:57:37;21.67;;;9.87;;
72920;SDS011;61064;51.654;5.476;2023-04-06T05:00:02;20.70;;;9.63;;
72920;SDS011;61064;51.654;5.476;2023-04-06T05:02:28;20.77;;;10.15;;
72920;SDS011;61064;51.654;5.476;2023-04-06T05:04:53;17.67;;;9.27;;
72920;SDS011;61064;51.654;5.476;2023-04-06T05:07:18;18.50;;;8.93;;
72920;SDS011;61064;51.654;5.476;2023-04-06T05:09:45;23.88;;;10.48;;
72920;SDS011;61064;51.654;5.476;2023-04-06T05:12:14;19.97;;;9.40;;
72920;SDS011;61064;51.654;5.476;2023-04-06T05:14:39;22.00;;;9.80;;
72920;SDS011;61064;51.654;5.476;2023-04-06T05:17:05;20.55;;;9.77;;
72920;SDS011;61064;51.654;5.476;2023-04-06T05:19:31;21.63;;;9.73;;
72920;SDS011;61064;51.654;5.476;2023-04-06T05:21:56;22.03;;;9.97;;
72920;SDS011;61064;51.654;5.476;2023-04-06T05:24:22;22.57;;;10.20;;
72920;SDS011;61064;51.654;5.476;2023-04-06T05:26:47;22.73;;;10.67;;
72920;SDS011;61064;51.654;5.476;2023-04-06T05:29:13;18.80;;;9.60;;
72920;SDS011;61064;51.654;5.476;2023-04-06T05:31:39;23.83;;;10.10;;
72920;SDS011;61064;51.654;5.476;2023-04-06T05:34:05;23.70;;;10.23;;
72920;SDS011;61064;51.654;5.476;2023-04-06T05:36:30;19.30;;;8.97;;
72920;SDS011;61064;51.654;5.476;2023-04-06T05:38:57;24.88;;;10.70;;
72920;SDS011;61064;51.654;5.476;2023-04-06T05:41:23;21.83;;;10.37;;
72920;SDS011;61064;51.654;5.476;2023-04-06T05:43:48;21.38;;;10.02;;
72920;SDS011;61064;51.654;5.476;2023-04-06T05:46:14;20.63;;;9.13;;
72920;SDS011;61064;51.654;5.476;2023-04-06T05:48:39;22.53;;;9.90;;
72920;SDS011;61064;51.654;5.476;2023-04-06T05:51:05;20.52;;;10.15;;
72920;SDS011;61064;51.654;5.476;2023-04-06T05:53:31;22.53;;;9.93;;
72920;SDS011;61064;51.654;5.476;2023-04-06T05:55:57;24.95;;;10.38;;
72920;SDS011;61064;51.654;5.476;2023-04-06T05:58:25;24.38;;;10.57;;
72920;SDS011;61064;51.654;5.476;2023-04-06T06:00:55;21.80;;;9.73;;
72920;SDS011;61064;51.654;5.476;2023-04-06T06:03:21;21.38;;;10.30;;
72920;SDS011;61064;51.654;5.476;2023-04-06T06:05:47;19.60;;;9.50;;
72920;SDS011;61064;51.654;5.476;2023-04-06T06:08:13;22.60;;;10.60;;
72920;SDS011;61064;51.654;5.476;2023-04-06T06:10:38;22.73;;;10.20;;
72920;SDS011;61064;51.654;5.476;2023-04-06T06:13:05;22.33;;;9.87;;
72920;SDS011;61064;51.654;5.476;2023-04-06T06:15:31;21.08;;;9.60;;
72920;SDS011;61064;51.654;5.476;2023-04-06T06:17:56;20.70;;;9.40;;
72920;SDS011;61064;51.654;5.476;2023-04-06T06:20:22;19.73;;;9.20;;
72920;SDS011;61064;51.654;5.476;2023-04-06T06:22:48;21.93;;;10.27;;
72920;SDS011;61064;51.654;5.476;2023-04-06T06:25:13;22.30;;;9.70;;
72920;SDS011;61064;51.654;5.476;2023-04-06T06:27:38;20.53;;;9.93;;
72920;SDS011;61064;51.654;5.476;2023-04-06T06:30:04;20.30;;;9.63;;
72920;SDS011;61064;51.654;5.476;2023-04-06T06:32:30;20.58;;;9.57;;
72920;SDS011;61064;51.654;5.476;2023-04-06T06:34:57;22.13;;;10.10;;
72920;SDS011;61064;51.654;5.476;2023-04-06T06:37:22;20.73;;;9.73;;
72920;SDS011;61064;51.654;5.476;2023-04-06T06:39:48;20.73;;;9.40;;
72920;SDS011;61064;51.654;5.476;2023-04-06T06:42:13;23.25;;;9.63;;
72920;SDS011;61064;51.654;5.476;2023-04-06T06:44:39;22.53;;;9.77;;
72920;SDS011;61064;51.654;5.476;2023-04-06T06:47:04;25.20;;;10.10;;
72920;SDS011;61064;51.654;5.476;2023-04-06T06:49:30;20.07;;;9.60;;
72920;SDS011;61064;51.654;5.476;2023-04-06T06:51:55;21.50;;;9.53;;
72920;SDS011;61064;51.654;5.476;2023-04-06T06:54:20;20.58;;;9.32;;
72920;SDS011;61064;51.654;5.476;2023-04-06T06:56:50;21.27;;;9.82;;
72920;SDS011;61064;51.654;5.476;2023-04-06T06:59:16;20.43;;;9.60;;
72920;SDS011;61064;51.654;5.476;2023-04-06T07:01:41;21.15;;;10.07;;
72920;SDS011;61064;51.654;5.476;2023-04-06T07:04:07;21.87;;;10.10;;
72920;SDS011;61064;51.654;5.476;2023-04-06T07:06:34;20.33;;;10.07;;
72920;SDS011;61064;51.654;5.476;2023-04-06T07:09:00;23.23;;;9.53;;
72920;SDS011;61064;51.654;5.476;2023-04-06T07:11:28;21.67;;;10.50;;
72920;SDS011;61064;51.654;5.476;2023-04-06T07:13:54;21.13;;;9.90;;
72920;SDS011;61064;51.654;5.476;2023-04-06T07:16:19;21.93;;;10.00;;
72920;SDS011;61064;51.654;5.476;2023-04-06T07:18:46;19.40;;;9.70;;
72920;SDS011;61064;51.654;5.476;2023-04-06T07:21:12;24.63;;;10.20;;
72920;SDS011;61064;51.654;5.476;2023-04-06T07:23:37;21.93;;;10.03;;
72920;SDS011;61064;51.654;5.476;2023-04-06T07:26:03;21.33;;;9.55;;
72920;SDS011;61064;51.654;5.476;2023-04-06T07:28:28;19.60;;;9.37;;
72920;SDS011;61064;51.654;5.476;2023-04-06T07:30:55;18.43;;;9.50;;
72920;SDS011;61064;51.654;5.476;2023-04-06T07:33:21;19.98;;;9.38;;
72920;SDS011;61064;51.654;5.476;2023-04-06T07:35:46;22.23;;;9.73;;
72920;SDS011;61064;51.654;5.476;2023-04-06T07:38:13;19.92;;;9.95;;
72920;SDS011;61064;51.654;5.476;2023-04-06T07:40:39;21.77;;;10.30;;
72920;SDS011;61064;51.654;5.476;2023-04-06T07:43:04;19.13;;;9.43;;
72920;SDS011;61064;51.654;5.476;2023-04-06T07:45:30;19.38;;;9.65;;
72920;SDS011;61064;51.654;5.476;2023-04-06T07:47:56;23.40;;;10.50;;
72920;SDS011;61064;51.654;5.476;2023-04-06T07:50:21;21.73;;;9.70;;
72920;SDS011;61064;51.654;5.476;2023-04-06T07:52:47;19.00;;;9.37;;
72920;SDS011;61064;51.654;5.476;2023-04-06T07:55:12;20.87;;;9.70;;
72920;SDS011;61064;51.654;5.476;2023-04-06T07:57:39;20.42;;;9.45;;
72920;SDS011;61064;51.654;5.476;2023-04-06T08:00:04;21.50;;;9.80;;
72920;SDS011;61064;51.654;5.476;2023-04-06T08:02:33;20.70;;;9.55;;
72920;SDS011;61064;51.654;5.476;2023-04-06T08:05:00;22.38;;;9.40;;
72920;SDS011;61064;51.654;5.476;2023-04-06T08:07:26;21.27;;;10.25;;
72920;SDS011;61064;51.654;5.476;2023-04-06T08:09:51;21.97;;;9.80;;
72920;SDS011;61064;51.654;5.476;2023-04-06T08:12:17;19.43;;;9.30;;
72920;SDS011;61064;51.654;5.476;2023-04-06T08:14:42;20.05;;;9.43;;
72920;SDS011;61064;51.654;5.476;2023-04-06T08:17:09;19.50;;;9.57;;
72920;SDS011;61064;51.654;5.476;2023-04-06T08:19:34;20.93;;;9.50;;
72920;SDS011;61064;51.654;5.476;2023-04-06T08:21:59;20.73;;;9.73;;
72920;SDS011;61064;51.654;5.476;2023-04-06T08:24:25;19.40;;;9.47;;
72920;SDS011;61064;51.654;5.476;2023-04-06T08:26:50;21.10;;;9.77;;
72920;SDS011;61064;51.654;5.476;2023-04-06T08:29:16;18.50;;;9.03;;
72920;SDS011;61064;51.654;5.476;2023-04-06T08:31:41;19.07;;;9.20;;
72920;SDS011;61064;51.654;5.476;2023-04-06T08:34:07;21.40;;;9.70;;
72920;SDS011;61064;51.654;5.476;2023-04-06T08:36:32;18.23;;;9.30;;
72920;SDS011;61064;51.654;5.476;2023-04-06T08:38:58;22.23;;;10.13;;
72920;SDS011;61064;51.654;5.476;2023-04-06T08:41:24;21.02;;;9.40;;
72920;SDS011;61064;51.654;5.476;2023-04-06T08:43:59;23.47;;;10.13;;
72920;SDS011;61064;51.654;5.476;2023-04-06T08:46:26;23.23;;;10.23;;
72920;SDS011;61064;51.654;5.476;2023-04-06T08:48:55;22.88;;;9.77;;
72920;SDS011;61064;51.654;5.476;2023-04-06T08:51:23;21.27;;;10.10;;
72920;SDS011;61064;51.654;5.476;2023-04-06T08:53:53;20.42;;;10.00;;
72920;SDS011;61064;51.654;5.476;2023-04-06T08:56:20;24.30;;;10.68;;
72920;SDS011;61064;51.654;5.476;2023-04-06T08:58:46;21.42;;;10.05;;
72920;SDS011;61064;51.654;5.476;2023-04-06T09:01:12;22.48;;;9.70;;
72920;SDS011;61064;51.654;5.476;2023-04-06T09:03:40;21.77;;;10.33;;
72920;SDS011;61064;51.654;5.476;2023-04-06T09:06:08;19.33;;;9.13;;
72920;SDS011;61064;51.654;5.476;2023-04-06T09:08:34;19.98;;;9.05;;
72920;SDS011;61064;51.654;5.476;2023-04-06T09:11:01;19.60;;;9.57;;
72920;SDS011;61064;51.654;5.476;2023-04-06T09:13:30;19.60;;;9.38;;
72920;SDS011;61064;51.654;5.476;2023-04-06T09:16:00;20.70;;;9.93;;
72920;SDS011;61064;51.654;5.476;2023-04-06T09:18:30;17.67;;;8.90;;
72920;SDS011;61064;51.654;5.476;2023-04-06T09:20:57;22.58;;;10.57;;
72920;SDS011;61064;51.654;5.476;2023-04-06T09:23:26;22.23;;;9.50;;
72920;SDS011;61064;51.654;5.476;2023-04-06T09:25:51;21.58;;;9.68;;
72920;SDS011;61064;51.654;5.476;2023-04-06T09:28:17;23.53;;;10.70;;
72920;SDS011;61064;51.654;5.476;2023-04-06T09:30:48;20.13;;;9.53;;
72920;SDS011;61064;51.654;5.476;2023-04-06T09:33:21;19.17;;;10.00;;
72920;SDS011;61064;51.654;5.476;2023-04-06T09:35:50;18.83;;;9.30;;
72920;SDS011;61064;51.654;5.476;2023-04-06T09:38:16;20.10;;;9.50;;
72920;SDS011;61064;51.654;5.476;2023-04-06T09:40:48;21.47;;;10.37;;
72920;SDS011;61064;51.654;5.476;2023-04-06T09:43:23;19.30;;;9.63;;
72920;SDS011;61064;51.654;5.476;2023-04-06T09:45:49;20.63;;;9.73;;
72920;SDS011;61064;51.654;5.476;2023-04-06T09:48:15;19.30;;;9.40;;
72920;SDS011;61064;51.654;5.476;2023-04-06T09:50:41;17.50;;;8.80;;
72920;SDS011;61064;51.654;5.476;2023-04-06T09:53:07;20.07;;;9.87;;
72920;SDS011;61064;51.654;5.476;2023-04-06T09:58:03;18.63;;;8.77;;
72920;SDS011;61064;51.654;5.476;2023-04-06T10:00:31;16.30;;;7.80;;
72920;SDS011;61064;51.654;5.476;2023-04-06T10:05:46;16.02;;;7.40;;
72920;SDS011;61064;51.654;5.476;2023-04-06T10:08:13;16.60;;;7.40;;
72920;SDS011;61064;51.654;5.476;2023-04-06T10:10:40;18.15;;;8.32;;
72920;SDS011;61064;51.654;5.476;2023-04-06T10:13:07;17.17;;;7.80;;
72920;SDS011;61064;51.654;5.476;2023-04-06T10:15:35;17.52;;;7.78;;
72920;SDS011;61064;51.654;5.476;2023-04-06T10:18:03;15.43;;;7.55;;
72920;SDS011;61064;51.654;5.476;2023-04-06T10:23:08;14.83;;;7.47;;
72920;SDS011;61064;51.654;5.476;2023-04-06T10:25:51;14.57;;;7.00;;
72920;SDS011;61064;51.654;5.476;2023-04-06T10:28:20;15.40;;;7.50;;
72920;SDS011;61064;51.654;5.476;2023-04-06T10:30:46;17.50;;;7.77;;
72920;SDS011;61064;51.654;5.476;2023-04-06T10:33:12;14.83;;;7.03;;
72920;SDS011;61064;51.654;5.476;2023-04-06T10:35:41;14.43;;;6.60;;
72920;SDS011;61064;51.654;5.476;2023-04-06T10:38:07;14.25;;;6.30;;
72920;SDS011;61064;51.654;5.476;2023-04-06T10:40:35;14.50;;;6.80;;
72920;SDS011;61064;51.654;5.476;2023-04-06T10:45:33;14.20;;;6.18;;
72920;SDS011;61064;51.654;5.476;2023-04-06T10:48:00;14.27;;;5.53;;
72920;SDS011;61064;51.654;5.476;2023-04-06T10:50:26;12.68;;;5.80;;
72920;SDS011;61064;51.654;5.476;2023-04-06T10:53:03;13.00;;;5.20;;
72920;SDS011;61064;51.654;5.476;2023-04-06T10:55:29;12.40;;;5.20;;
72920;SDS011;61064;51.654;5.476;2023-04-06T10:57:55;12.57;;;5.13;;
72920;SDS011;61064;51.654;5.476;2023-04-06T11:00:22;11.90;;;5.27;;
72920;SDS011;61064;51.654;5.476;2023-04-06T11:02:48;16.08;;;5.72;;
72920;SDS011;61064;51.654;5.476;2023-04-06T11:05:14;11.90;;;5.07;;
72920;SDS011;61064;51.654;5.476;2023-04-06T11:07:40;12.37;;;5.27;;
72920;SDS011;61064;51.654;5.476;2023-04-06T11:10:06;11.10;;;4.97;;
72920;SDS011;61064;51.654;5.476;2023-04-06T11:12:32;12.27;;;5.20;;
72920;SDS011;61064;51.654;5.476;2023-04-06T11:15:01;11.52;;;5.15;;
72920;SDS011;61064;51.654;5.476;2023-04-06T11:17:32;11.73;;;4.78;;
72920;SDS011;61064;51.654;5.476;2023-04-06T11:20:01;10.70;;;4.43;;
72920;SDS011;61064;51.654;5.476;2023-04-06T11:22:27;10.65;;;4.82;;
72920;SDS011;61064;51.654;5.476;2023-04-06T11:25:04;12.38;;;4.88;;
72920;SDS011;61064;51.654;5.476;2023-04-06T11:27:30;12.17;;;4.37;;
72920;SDS011;61064;51.654;5.476;2023-04-06T11:29:57;11.35;;;4.35;;
72920;SDS011;61064;51.654;5.476;2023-04-06T11:32:24;13.35;;;4.85;;
72920;SDS011;61064;51.654;5.476;2023-04-06T11:34:50;11.98;;;5.22;;
72920;SDS011;61064;51.654;5.476;2023-04-06T11:37:15;10.13;;;4.40;;
72920;SDS011;61064;51.654;5.476;2023-04-06T11:39:51;12.35;;;5.07;;
72920;SDS011;61064;51.654;5.476;2023-04-06T11:42:26;10.82;;;4.70;;
72920;SDS011;61064;51.654;5.476;2023-04-06T11:44:56;11.53;;;5.10;;
72920;SDS011;61064;51.654;5.476;2023-04-06T11:47:33;14.07;;;4.60;;
72920;SDS011;61064;51.654;5.476;2023-04-06T11:50:10;13.00;;;4.65;;
72920;SDS011;61064;51.654;5.476;2023-04-06T11:52:39;12.18;;;4.85;;
72920;SDS011;61064;51.654;5.476;2023-04-06T11:55:10;12.50;;;4.78;;
72920;SDS011;61064;51.654;5.476;2023-04-06T11:57:37;11.90;;;4.13;;
72920;SDS011;61064;51.654;5.476;2023-04-06T12:00:03;11.05;;;4.65;;
72920;SDS011;61064;51.654;5.476;2023-04-06T12:02:29;13.03;;;4.80;;
72920;SDS011;61064;51.654;5.476;2023-04-06T12:04:57;11.50;;;5.10;;
72920;SDS011;61064;51.654;5.476;2023-04-06T12:07:22;13.10;;;4.60;;
72920;SDS011;61064;51.654;5.476;2023-04-06T12:09:47;10.37;;;4.37;;
72920;SDS011;61064;51.654;5.476;2023-04-06T12:12:13;9.40;;;4.20;;
72920;SDS011;61064;51.654;5.476;2023-04-06T12:14:38;12.83;;;4.93;;
72920;SDS011;61064;51.654;5.476;2023-04-06T12:17:03;12.47;;;4.90;;
72920;SDS011;61064;51.654;5.476;2023-04-06T12:19:29;12.60;;;5.20;;
72920;SDS011;61064;51.654;5.476;2023-04-06T12:21:54;12.93;;;4.83;;
72920;SDS011;61064;51.654;5.476;2023-04-06T12:24:21;15.53;;;5.30;;
72920;SDS011;61064;51.654;5.476;2023-04-06T12:26:47;12.85;;;5.07;;
72920;SDS011;61064;51.654;5.476;2023-04-06T12:29:12;11.90;;;5.43;;
72920;SDS011;61064;51.654;5.476;2023-04-06T12:31:38;11.30;;;4.77;;
72920;SDS011;61064;51.654;5.476;2023-04-06T12:34:06;11.38;;;4.63;;
72920;SDS011;61064;51.654;5.476;2023-04-06T12:36:32;13.15;;;5.00;;
72920;SDS011;61064;51.654;5.476;2023-04-06T12:38:58;12.00;;;5.05;;
72920;SDS011;61064;51.654;5.476;2023-04-06T12:41:24;15.47;;;5.27;;
72920;SDS011;61064;51.654;5.476;2023-04-06T12:43:49;12.20;;;5.40;;
72920;SDS011;61064;51.654;5.476;2023-04-06T12:46:15;12.20;;;4.88;;
72920;SDS011;61064;51.654;5.476;2023-04-06T12:48:41;12.57;;;5.00;;
72920;SDS011;61064;51.654;5.476;2023-04-06T12:51:06;11.73;;;5.37;;
72920;SDS011;61064;51.654;5.476;2023-04-06T12:53:32;12.90;;;5.20;;
72920;SDS011;61064;51.654;5.476;2023-04-06T12:55:59;11.88;;;5.53;;
72920;SDS011;61064;51.654;5.476;2023-04-06T12:58:25;12.43;;;5.23;;
72920;SDS011;61064;51.654;5.476;2023-04-06T13:00:54;11.77;;;5.32;;
72920;SDS011;61064;51.654;5.476;2023-04-06T13:03:22;14.45;;;5.88;;
72920;SDS011;61064;51.654;5.476;2023-04-06T13:05:48;11.73;;;5.60;;
72920;SDS011;61064;51.654;5.476;2023-04-06T13:08:18;12.20;;;5.25;;
72920;SDS011;61064;51.654;5.476;2023-04-06T13:10:46;11.45;;;5.60;;
72920;SDS011;61064;51.654;5.476;2023-04-06T13:13:13;12.57;;;5.28;;
72920;SDS011;61064;51.654;5.476;2023-04-06T13:15:39;12.63;;;5.07;;
72920;SDS011;61064;51.654;5.476;2023-04-06T13:18:05;13.80;;;5.60;;
72920;SDS011;61064;51.654;5.476;2023-04-06T13:20:31;12.55;;;5.63;;
72920;SDS011;61064;51.654;5.476;2023-04-06T13:22:57;12.83;;;5.73;;
72920;SDS011;61064;51.654;5.476;2023-04-06T13:25:22;12.57;;;5.60;;
72920;SDS011;61064;51.654;5.476;2023-04-06T13:27:47;12.47;;;5.70;;
72920;SDS011;61064;51.654;5.476;2023-04-06T13:30:13;12.50;;;5.90;;
72920;SDS011;61064;51.654;5.476;2023-04-06T13:32:40;15.05;;;5.72;;
72920;SDS011;61064;51.654;5.476;2023-04-06T13:35:06;13.90;;;5.65;;
72920;SDS011;61064;51.654;5.476;2023-04-06T13:37:32;12.50;;;5.45;;
72920;SDS011;61064;51.654;5.476;2023-04-06T13:39:58;13.63;;;5.30;;
72920;SDS011;61064;51.654;5.476;2023-04-06T13:42:24;11.43;;;5.30;;
72920;SDS011;61064;51.654;5.476;2023-04-06T13:44:49;14.27;;;6.07;;
72920;SDS011;61064;51.654;5.476;2023-04-06T13:47:16;13.27;;;5.75;;
72920;SDS011;61064;51.654;5.476;2023-04-06T13:49:42;13.18;;;5.82;;
72920;SDS011;61064;51.654;5.476;2023-04-06T13:52:07;13.93;;;5.83;;
72920;SDS011;61064;51.654;5.476;2023-04-06T13:54:34;13.50;;;5.95;;
72920;SDS011;61064;51.654;5.476;2023-04-06T13:57:00;12.93;;;6.23;;
72920;SDS011;61064;51.654;5.476;2023-04-06T13:59:31;13.67;;;5.90;;
72920;SDS011;61064;51.654;5.476;2023-04-06T14:01:57;13.50;;;5.93;;
72920;SDS011;61064;51.654;5.476;2023-04-06T14:04:22;14.83;;;6.53;;
72920;SDS011;61064;51.654;5.476;2023-04-06T14:06:47;11.50;;;5.93;;
72920;SDS011;61064;51.654;5.476;2023-04-06T14:09:13;12.37;;;5.40;;
72920;SDS011;61064;51.654;5.476;2023-04-06T14:11:38;12.85;;;5.40;;
72920;SDS011;61064;51.654;5.476;2023-04-06T14:14:03;13.53;;;5.80;;
72920;SDS011;61064;51.654;5.476;2023-04-06T14:16:29;12.40;;;5.87;;
72920;SDS011;61064;51.654;5.476;2023-04-06T14:18:54;13.33;;;5.40;;
72920;SDS011;61064;51.654;5.476;2023-04-06T14:21:22;12.18;;;5.90;;
72920;SDS011;61064;51.654;5.476;2023-04-06T14:23:48;12.20;;;5.33;;
72920;SDS011;61064;51.654;5.476;2023-04-06T14:26:13;11.70;;;5.50;;
72920;SDS011;61064;51.654;5.476;2023-04-06T14:28:40;12.13;;;5.75;;
72920;SDS011;61064;51.654;5.476;2023-04-06T14:31:10;13.23;;;5.60;;
72920;SDS011;61064;51.654;5.476;2023-04-06T14:33:36;13.07;;;5.35;;
72920;SDS011;61064;51.654;5.476;2023-04-06T14:36:02;12.03;;;5.63;;
72920;SDS011;61064;51.654;5.476;2023-04-06T14:38:28;13.50;;;5.50;;